sensor_id;sensor_type;location;lat;lon;timestamp;P1;durP1;ratioP1;P2;durP2;ratioP2
12631;SDS011;6381;45.748;12.106;2023-03-05T00:00:15;37.90;;;29.27;;
12631;SDS011;6381;45.748;12.106;2023-03-05T00:02:45;33.77;;;29.50;;
12631;SDS011;6381;45.748;12.106;2023-03-05T00:05:14;34.17;;;28.53;;
12631;SDS011;6381;45.748;12.106;2023-03-05T00:08:00;33.47;;;28.33;;
12631;SDS011;6381;45.748;12.106;2023-03-05T00:10:30;31.07;;;26.47;;
12631;SDS011;6381;45.748;12.106;2023-03-05T00:12:59;33.33;;;27.77;;
12631;SDS011;6381;45.748;12.106;2023-03-05T00:15:29;30.83;;;26.90;;
12631;SDS011;6381;45.748;12.106;2023-03-05T00:17:59;30.40;;;26.53;;
12631;SDS011;6381;45.748;12.106;2023-03-05T00:20:28;30.10;;;26.20;;
12631;SDS011;6381;45.748;12.106;2023-03-05T00:22:57;29.20;;;25.83;;
12631;SDS011;6381;45.748;12.106;2023-03-05T00:25:26;34.40;;;27.70;;
12631;SDS011;6381;45.748;12.106;2023-03-05T00:28:14;30.03;;;26.13;;
12631;SDS011;6381;45.748;12.106;2023-03-05T00:30:44;34.30;;;26.57;;
12631;SDS011;6381;45.748;12.106;2023-03-05T00:36:04;30.60;;;26.03;;
12631;SDS011;6381;45.748;12.106;2023-03-05T00:38:33;31.00;;;25.83;;
12631;SDS011;6381;45.748;12.106;2023-03-05T00:41:02;31.90;;;27.10;;
12631;SDS011;6381;45.748;12.106;2023-03-05T00:43:32;33.13;;;28.20;;
12631;SDS011;6381;45.748;12.106;2023-03-05T00:46:02;31.37;;;26.37;;
12631;SDS011;6381;45.748;12.106;2023-03-05T00:48:49;30.30;;;26.60;;
12631;SDS011;6381;45.748;12.106;2023-03-05T00:51:18;29.30;;;26.20;;
12631;SDS011;6381;45.748;12.106;2023-03-05T00:54:05;34.77;;;28.23;;
12631;SDS011;6381;45.748;12.106;2023-03-05T00:56:34;37.03;;;31.40;;
12631;SDS011;6381;45.748;12.106;2023-03-05T00:59:22;38.53;;;32.40;;
12631;SDS011;6381;45.748;12.106;2023-03-05T01:01:52;38.60;;;32.63;;
12631;SDS011;6381;45.748;12.106;2023-03-05T01:04:22;37.77;;;32.60;;
12631;SDS011;6381;45.748;12.106;2023-03-05T01:09:38;43.37;;;36.67;;
12631;SDS011;6381;45.748;12.106;2023-03-05T01:12:08;46.73;;;38.73;;
12631;SDS011;6381;45.748;12.106;2023-03-05T01:14:54;50.63;;;40.57;;
12631;SDS011;6381;45.748;12.106;2023-03-05T01:17:25;50.33;;;41.27;;
12631;SDS011;6381;45.748;12.106;2023-03-05T01:20:12;54.17;;;42.13;;
12631;SDS011;6381;45.748;12.106;2023-03-05T01:22:41;46.57;;;39.97;;
12631;SDS011;6381;45.748;12.106;2023-03-05T01:25:11;48.77;;;42.10;;
12631;SDS011;6381;45.748;12.106;2023-03-05T01:27:40;49.83;;;43.27;;
12631;SDS011;6381;45.748;12.106;2023-03-05T01:30:10;53.20;;;43.50;;
12631;SDS011;6381;45.748;12.106;2023-03-05T01:32:41;50.83;;;42.43;;
12631;SDS011;6381;45.748;12.106;2023-03-05T01:35:14;50.80;;;42.57;;
12631;SDS011;6381;45.748;12.106;2023-03-05T01:38:01;49.90;;;42.20;;
12631;SDS011;6381;45.748;12.106;2023-03-05T01:40:49;51.53;;;42.53;;
12631;SDS011;6381;45.748;12.106;2023-03-05T01:43:36;47.10;;;41.23;;
12631;SDS011;6381;45.748;12.106;2023-03-05T01:49:17;48.70;;;40.60;;
12631;SDS011;6381;45.748;12.106;2023-03-05T01:52:05;46.77;;;38.80;;
12631;SDS011;6381;45.748;12.106;2023-03-05T01:54:36;43.80;;;38.57;;
12631;SDS011;6381;45.748;12.106;2023-03-05T01:57:07;44.60;;;36.57;;
12631;SDS011;6381;45.748;12.106;2023-03-05T01:59:38;44.13;;;35.70;;
12631;SDS011;6381;45.748;12.106;2023-03-05T02:02:27;45.17;;;36.83;;
12631;SDS011;6381;45.748;12.106;2023-03-05T02:05:17;46.13;;;37.20;;
12631;SDS011;6381;45.748;12.106;2023-03-05T02:07:46;44.93;;;35.23;;
12631;SDS011;6381;45.748;12.106;2023-03-05T02:10:34;39.50;;;31.83;;
12631;SDS011;6381;45.748;12.106;2023-03-05T02:13:23;33.97;;;30.27;;
12631;SDS011;6381;45.748;12.106;2023-03-05T02:15:53;32.00;;;28.63;;
12631;SDS011;6381;45.748;12.106;2023-03-05T02:18:24;34.27;;;27.17;;
12631;SDS011;6381;45.748;12.106;2023-03-05T02:20:58;29.50;;;25.80;;
12631;SDS011;6381;45.748;12.106;2023-03-05T02:23:28;33.40;;;25.30;;
12631;SDS011;6381;45.748;12.106;2023-03-05T02:26:17;28.63;;;24.23;;
12631;SDS011;6381;45.748;12.106;2023-03-05T02:28:46;29.57;;;24.47;;
12631;SDS011;6381;45.748;12.106;2023-03-05T02:31:17;26.77;;;23.77;;
12631;SDS011;6381;45.748;12.106;2023-03-05T02:33:48;25.53;;;22.83;;
12631;SDS011;6381;45.748;12.106;2023-03-05T02:39:08;23.40;;;20.57;;
12631;SDS011;6381;45.748;12.106;2023-03-05T02:41:37;22.77;;;19.87;;
12631;SDS011;6381;45.748;12.106;2023-03-05T02:46:54;22.60;;;18.57;;
12631;SDS011;6381;45.748;12.106;2023-03-05T02:52:12;26.13;;;18.30;;
12631;SDS011;6381;45.748;12.106;2023-03-05T02:54:42;22.70;;;16.53;;
12631;SDS011;6381;45.748;12.106;2023-03-05T02:57:11;22.30;;;17.87;;
12631;SDS011;6381;45.748;12.106;2023-03-05T03:02:34;20.27;;;17.37;;
12631;SDS011;6381;45.748;12.106;2023-03-05T03:05:05;20.93;;;17.70;;
12631;SDS011;6381;45.748;12.106;2023-03-05T03:07:36;23.23;;;17.27;;
12631;SDS011;6381;45.748;12.106;2023-03-05T03:10:08;24.77;;;17.40;;
12631;SDS011;6381;45.748;12.106;2023-03-05T03:12:55;22.10;;;17.27;;
12631;SDS011;6381;45.748;12.106;2023-03-05T03:15:24;19.90;;;16.53;;
12631;SDS011;6381;45.748;12.106;2023-03-05T03:18:11;21.37;;;17.23;;
12631;SDS011;6381;45.748;12.106;2023-03-05T03:20:41;20.60;;;16.83;;
12631;SDS011;6381;45.748;12.106;2023-03-05T03:23:10;20.07;;;17.00;;
12631;SDS011;6381;45.748;12.106;2023-03-05T03:25:40;19.60;;;16.40;;
12631;SDS011;6381;45.748;12.106;2023-03-05T03:28:28;19.67;;;16.67;;
12631;SDS011;6381;45.748;12.106;2023-03-05T03:30:58;20.73;;;16.80;;
12631;SDS011;6381;45.748;12.106;2023-03-05T03:36:14;19.10;;;17.07;;
12631;SDS011;6381;45.748;12.106;2023-03-05T03:38:44;19.83;;;17.80;;
12631;SDS011;6381;45.748;12.106;2023-03-05T03:41:14;20.77;;;17.63;;
12631;SDS011;6381;45.748;12.106;2023-03-05T03:43:44;19.63;;;17.47;;
12631;SDS011;6381;45.748;12.106;2023-03-05T03:46:13;20.47;;;17.53;;
12631;SDS011;6381;45.748;12.106;2023-03-05T03:48:43;23.10;;;18.43;;
12631;SDS011;6381;45.748;12.106;2023-03-05T03:51:12;21.50;;;17.33;;
12631;SDS011;6381;45.748;12.106;2023-03-05T03:53:58;19.33;;;17.23;;
12631;SDS011;6381;45.748;12.106;2023-03-05T03:56:29;22.80;;;19.20;;
12631;SDS011;6381;45.748;12.106;2023-03-05T03:58:59;24.40;;;18.70;;
12631;SDS011;6381;45.748;12.106;2023-03-05T04:01:28;21.10;;;18.73;;
12631;SDS011;6381;45.748;12.106;2023-03-05T04:03:57;21.20;;;18.50;;
12631;SDS011;6381;45.748;12.106;2023-03-05T04:06:43;22.83;;;20.07;;
12631;SDS011;6381;45.748;12.106;2023-03-05T04:09:12;24.37;;;18.60;;
12631;SDS011;6381;45.748;12.106;2023-03-05T04:11:43;22.07;;;18.93;;
12631;SDS011;6381;45.748;12.106;2023-03-05T04:14:12;24.70;;;18.67;;
12631;SDS011;6381;45.748;12.106;2023-03-05T04:16:59;23.23;;;19.43;;
12631;SDS011;6381;45.748;12.106;2023-03-05T04:19:28;21.77;;;18.43;;
12631;SDS011;6381;45.748;12.106;2023-03-05T04:25:04;21.03;;;18.13;;
12631;SDS011;6381;45.748;12.106;2023-03-05T04:27:35;26.23;;;20.83;;
12631;SDS011;6381;45.748;12.106;2023-03-05T04:30:41;27.60;;;22.20;;
12631;SDS011;6381;45.748;12.106;2023-03-05T04:33:10;26.63;;;21.43;;
12631;SDS011;6381;45.748;12.106;2023-03-05T04:35:39;23.73;;;20.80;;
12631;SDS011;6381;45.748;12.106;2023-03-05T04:38:26;24.47;;;21.80;;
12631;SDS011;6381;45.748;12.106;2023-03-05T04:40:58;24.30;;;21.70;;
12631;SDS011;6381;45.748;12.106;2023-03-05T04:43:28;23.07;;;20.67;;
12631;SDS011;6381;45.748;12.106;2023-03-05T04:45:57;23.70;;;21.17;;
12631;SDS011;6381;45.748;12.106;2023-03-05T04:48:45;25.53;;;21.20;;
12631;SDS011;6381;45.748;12.106;2023-03-05T04:51:14;21.47;;;18.67;;
12631;SDS011;6381;45.748;12.106;2023-03-05T04:53:43;22.50;;;19.17;;
12631;SDS011;6381;45.748;12.106;2023-03-05T04:56:12;27.37;;;20.13;;
12631;SDS011;6381;45.748;12.106;2023-03-05T04:59:19;24.30;;;20.17;;
12631;SDS011;6381;45.748;12.106;2023-03-05T05:01:48;23.90;;;20.53;;
12631;SDS011;6381;45.748;12.106;2023-03-05T05:04:17;22.80;;;20.40;;
12631;SDS011;6381;45.748;12.106;2023-03-05T05:07:04;25.37;;;20.60;;
12631;SDS011;6381;45.748;12.106;2023-03-05T05:09:34;23.57;;;20.57;;
12631;SDS011;6381;45.748;12.106;2023-03-05T05:12:03;23.80;;;20.47;;
12631;SDS011;6381;45.748;12.106;2023-03-05T05:14:51;26.77;;;21.27;;
12631;SDS011;6381;45.748;12.106;2023-03-05T05:17:20;22.67;;;20.20;;
12631;SDS011;6381;45.748;12.106;2023-03-05T05:19:49;24.67;;;21.93;;
12631;SDS011;6381;45.748;12.106;2023-03-05T05:22:18;27.53;;;21.57;;
12631;SDS011;6381;45.748;12.106;2023-03-05T05:25:05;23.63;;;20.30;;
12631;SDS011;6381;45.748;12.106;2023-03-05T05:27:34;22.60;;;20.20;;
12631;SDS011;6381;45.748;12.106;2023-03-05T05:30:06;23.33;;;20.60;;
12631;SDS011;6381;45.748;12.106;2023-03-05T05:32:35;26.40;;;22.80;;
12631;SDS011;6381;45.748;12.106;2023-03-05T05:35:05;24.43;;;21.57;;
12631;SDS011;6381;45.748;12.106;2023-03-05T05:37:35;29.33;;;20.73;;
12631;SDS011;6381;45.748;12.106;2023-03-05T05:40:04;24.53;;;20.77;;
12631;SDS011;6381;45.748;12.106;2023-03-05T05:42:51;26.27;;;22.93;;
12631;SDS011;6381;45.748;12.106;2023-03-05T05:45:21;24.70;;;20.80;;
12631;SDS011;6381;45.748;12.106;2023-03-05T05:47:51;24.50;;;21.90;;
12631;SDS011;6381;45.748;12.106;2023-03-05T05:50:20;26.20;;;23.40;;
12631;SDS011;6381;45.748;12.106;2023-03-05T05:53:08;28.37;;;24.63;;
12631;SDS011;6381;45.748;12.106;2023-03-05T05:55:55;29.23;;;25.10;;
12631;SDS011;6381;45.748;12.106;2023-03-05T05:58:24;28.73;;;24.40;;
12631;SDS011;6381;45.748;12.106;2023-03-05T06:00:55;29.17;;;26.00;;
12631;SDS011;6381;45.748;12.106;2023-03-05T06:03:41;32.17;;;26.13;;
12631;SDS011;6381;45.748;12.106;2023-03-05T06:06:10;28.17;;;23.30;;
12631;SDS011;6381;45.748;12.106;2023-03-05T06:08:40;26.40;;;23.37;;
12631;SDS011;6381;45.748;12.106;2023-03-05T06:11:09;28.33;;;22.53;;
12631;SDS011;6381;45.748;12.106;2023-03-05T06:13:38;25.63;;;21.07;;
12631;SDS011;6381;45.748;12.106;2023-03-05T06:16:10;21.90;;;19.73;;
12631;SDS011;6381;45.748;12.106;2023-03-05T06:18:40;21.97;;;19.33;;
12631;SDS011;6381;45.748;12.106;2023-03-05T06:21:10;22.40;;;19.10;;
12631;SDS011;6381;45.748;12.106;2023-03-05T06:23:42;21.57;;;19.10;;
12631;SDS011;6381;45.748;12.106;2023-03-05T06:26:12;21.70;;;19.33;;
12631;SDS011;6381;45.748;12.106;2023-03-05T06:28:42;23.30;;;19.20;;
12631;SDS011;6381;45.748;12.106;2023-03-05T06:34:02;21.03;;;18.57;;
12631;SDS011;6381;45.748;12.106;2023-03-05T06:36:31;22.60;;;18.60;;
12631;SDS011;6381;45.748;12.106;2023-03-05T06:39:00;22.90;;;18.30;;
12631;SDS011;6381;45.748;12.106;2023-03-05T06:41:31;23.47;;;18.67;;
12631;SDS011;6381;45.748;12.106;2023-03-05T06:44:00;24.60;;;18.80;;
12631;SDS011;6381;45.748;12.106;2023-03-05T06:46:30;25.07;;;19.63;;
12631;SDS011;6381;45.748;12.106;2023-03-05T06:51:49;24.93;;;20.57;;
12631;SDS011;6381;45.748;12.106;2023-03-05T06:54:18;22.13;;;19.67;;
12631;SDS011;6381;45.748;12.106;2023-03-05T06:56:47;28.90;;;20.97;;
12631;SDS011;6381;45.748;12.106;2023-03-05T07:02:04;26.03;;;21.57;;
12631;SDS011;6381;45.748;12.106;2023-03-05T07:04:33;27.30;;;21.67;;
12631;SDS011;6381;45.748;12.106;2023-03-05T07:07:22;23.97;;;19.87;;
12631;SDS011;6381;45.748;12.106;2023-03-05T07:09:52;25.40;;;20.17;;
12631;SDS011;6381;45.748;12.106;2023-03-05T07:12:21;25.70;;;21.87;;
12631;SDS011;6381;45.748;12.106;2023-03-05T07:14:50;24.20;;;19.93;;
12631;SDS011;6381;45.748;12.106;2023-03-05T07:17:19;24.03;;;20.30;;
12631;SDS011;6381;45.748;12.106;2023-03-05T07:19:48;24.83;;;19.27;;
12631;SDS011;6381;45.748;12.106;2023-03-05T07:22:17;22.43;;;19.90;;
12631;SDS011;6381;45.748;12.106;2023-03-05T07:24:48;22.07;;;19.10;;
12631;SDS011;6381;45.748;12.106;2023-03-05T07:27:17;22.07;;;16.87;;
12631;SDS011;6381;45.748;12.106;2023-03-05T07:29:47;19.63;;;16.07;;
12631;SDS011;6381;45.748;12.106;2023-03-05T07:32:16;20.33;;;15.33;;
12631;SDS011;6381;45.748;12.106;2023-03-05T07:34:45;17.43;;;15.53;;
12631;SDS011;6381;45.748;12.106;2023-03-05T07:37:14;21.97;;;16.37;;
12631;SDS011;6381;45.748;12.106;2023-03-05T07:39:43;20.03;;;17.00;;
12631;SDS011;6381;45.748;12.106;2023-03-05T07:42:14;19.30;;;14.90;;
12631;SDS011;6381;45.748;12.106;2023-03-05T07:44:54;20.03;;;14.87;;
12631;SDS011;6381;45.748;12.106;2023-03-05T07:47:41;15.60;;;13.20;;
12631;SDS011;6381;45.748;12.106;2023-03-05T07:50:46;14.70;;;11.53;;
12631;SDS011;6381;45.748;12.106;2023-03-05T07:53:16;14.07;;;11.27;;
12631;SDS011;6381;45.748;12.106;2023-03-05T07:55:45;16.77;;;11.93;;
12631;SDS011;6381;45.748;12.106;2023-03-05T07:58:16;15.20;;;12.40;;
12631;SDS011;6381;45.748;12.106;2023-03-05T08:00:45;14.23;;;11.00;;
12631;SDS011;6381;45.748;12.106;2023-03-05T08:03:14;13.23;;;11.20;;
12631;SDS011;6381;45.748;12.106;2023-03-05T08:06:03;12.63;;;10.17;;
12631;SDS011;6381;45.748;12.106;2023-03-05T08:08:33;12.03;;;9.60;;
12631;SDS011;6381;45.748;12.106;2023-03-05T08:11:03;12.40;;;9.70;;
12631;SDS011;6381;45.748;12.106;2023-03-05T08:13:34;11.67;;;9.60;;
12631;SDS011;6381;45.748;12.106;2023-03-05T08:16:22;11.87;;;9.90;;
12631;SDS011;6381;45.748;12.106;2023-03-05T08:18:53;13.20;;;10.07;;
12631;SDS011;6381;45.748;12.106;2023-03-05T08:21:24;16.40;;;10.73;;
12631;SDS011;6381;45.748;12.106;2023-03-05T08:23:56;15.00;;;10.50;;
12631;SDS011;6381;45.748;12.106;2023-03-05T08:26:26;12.43;;;10.53;;
12631;SDS011;6381;45.748;12.106;2023-03-05T08:28:57;12.97;;;11.17;;
12631;SDS011;6381;45.748;12.106;2023-03-05T08:31:26;16.70;;;10.57;;
12631;SDS011;6381;45.748;12.106;2023-03-05T08:34:15;16.27;;;11.27;;
12631;SDS011;6381;45.748;12.106;2023-03-05T08:36:45;12.03;;;10.37;;
12631;SDS011;6381;45.748;12.106;2023-03-05T08:39:14;16.20;;;10.93;;
12631;SDS011;6381;45.748;12.106;2023-03-05T08:41:44;15.90;;;10.73;;
12631;SDS011;6381;45.748;12.106;2023-03-05T08:44:14;16.93;;;10.43;;
12631;SDS011;6381;45.748;12.106;2023-03-05T08:46:43;12.43;;;10.30;;
12631;SDS011;6381;45.748;12.106;2023-03-05T08:49:13;13.13;;;10.40;;
12631;SDS011;6381;45.748;12.106;2023-03-05T08:51:42;16.20;;;11.13;;
12631;SDS011;6381;45.748;12.106;2023-03-05T08:54:11;13.63;;;10.43;;
12631;SDS011;6381;45.748;12.106;2023-03-05T08:56:40;11.67;;;10.40;;
12631;SDS011;6381;45.748;12.106;2023-03-05T08:59:10;15.37;;;10.27;;
12631;SDS011;6381;45.748;12.106;2023-03-05T09:01:41;14.57;;;10.43;;
12631;SDS011;6381;45.748;12.106;2023-03-05T09:04:10;12.73;;;10.87;;
12631;SDS011;6381;45.748;12.106;2023-03-05T09:06:39;14.07;;;10.87;;
12631;SDS011;6381;45.748;12.106;2023-03-05T09:09:26;14.50;;;11.80;;
12631;SDS011;6381;45.748;12.106;2023-03-05T09:11:56;16.87;;;12.53;;
12631;SDS011;6381;45.748;12.106;2023-03-05T09:14:44;15.40;;;12.70;;
12631;SDS011;6381;45.748;12.106;2023-03-05T09:17:32;15.20;;;12.60;;
12631;SDS011;6381;45.748;12.106;2023-03-05T09:20:01;16.20;;;12.77;;
12631;SDS011;6381;45.748;12.106;2023-03-05T09:22:30;18.57;;;13.00;;
12631;SDS011;6381;45.748;12.106;2023-03-05T09:24:59;16.40;;;13.03;;
12631;SDS011;6381;45.748;12.106;2023-03-05T09:27:31;13.87;;;11.40;;
12631;SDS011;6381;45.748;12.106;2023-03-05T09:30:01;13.67;;;11.80;;
12631;SDS011;6381;45.748;12.106;2023-03-05T09:32:31;16.23;;;12.57;;
12631;SDS011;6381;45.748;12.106;2023-03-05T09:35:01;17.23;;;12.37;;
12631;SDS011;6381;45.748;12.106;2023-03-05T09:37:30;17.27;;;12.40;;
12631;SDS011;6381;45.748;12.106;2023-03-05T09:39:59;17.43;;;12.30;;
12631;SDS011;6381;45.748;12.106;2023-03-05T09:42:33;16.03;;;12.20;;
12631;SDS011;6381;45.748;12.106;2023-03-05T09:47:59;16.13;;;12.23;;
12631;SDS011;6381;45.748;12.106;2023-03-05T09:50:39;12.90;;;11.33;;
12631;SDS011;6381;45.748;12.106;2023-03-05T09:53:19;14.30;;;11.00;;
12631;SDS011;6381;45.748;12.106;2023-03-05T09:56:09;14.53;;;11.73;;
12631;SDS011;6381;45.748;12.106;2023-03-05T09:58:39;14.57;;;12.83;;
12631;SDS011;6381;45.748;12.106;2023-03-05T10:01:28;16.90;;;13.00;;
12631;SDS011;6381;45.748;12.106;2023-03-05T10:04:22;15.40;;;12.53;;
12631;SDS011;6381;45.748;12.106;2023-03-05T10:06:57;14.50;;;12.33;;
12631;SDS011;6381;45.748;12.106;2023-03-05T10:09:40;18.87;;;12.70;;
12631;SDS011;6381;45.748;12.106;2023-03-05T10:12:14;16.03;;;13.73;;
12631;SDS011;6381;45.748;12.106;2023-03-05T10:14:46;17.23;;;13.00;;
12631;SDS011;6381;45.748;12.106;2023-03-05T10:20:18;20.53;;;13.97;;
12631;SDS011;6381;45.748;12.106;2023-03-05T10:22:54;19.93;;;14.37;;
12631;SDS011;6381;45.748;12.106;2023-03-05T10:25:37;19.77;;;15.63;;
12631;SDS011;6381;45.748;12.106;2023-03-05T10:28:28;17.60;;;15.20;;
12631;SDS011;6381;45.748;12.106;2023-03-05T10:31:19;22.63;;;16.53;;
12631;SDS011;6381;45.748;12.106;2023-03-05T10:37:47;22.50;;;16.40;;
12631;SDS011;6381;45.748;12.106;2023-03-05T10:40:35;19.73;;;16.33;;
12631;SDS011;6381;45.748;12.106;2023-03-05T10:46:17;26.57;;;20.33;;
12631;SDS011;6381;45.748;12.106;2023-03-05T10:48:49;25.30;;;19.20;;
12631;SDS011;6381;45.748;12.106;2023-03-05T10:51:27;25.00;;;18.07;;
12631;SDS011;6381;45.748;12.106;2023-03-05T10:54:08;23.27;;;17.53;;
12631;SDS011;6381;45.748;12.106;2023-03-05T10:56:42;24.77;;;18.87;;
12631;SDS011;6381;45.748;12.106;2023-03-05T10:59:10;22.83;;;18.63;;
12631;SDS011;6381;45.748;12.106;2023-03-05T11:01:40;25.98;;;19.75;;
12631;SDS011;6381;45.748;12.106;2023-03-05T11:04:26;22.10;;;19.07;;
12631;SDS011;6381;45.748;12.106;2023-03-05T11:06:58;21.93;;;18.10;;
12631;SDS011;6381;45.748;12.106;2023-03-05T11:09:29;24.70;;;20.77;;
12631;SDS011;6381;45.748;12.106;2023-03-05T11:12:04;23.70;;;18.48;;
12631;SDS011;6381;45.748;12.106;2023-03-05T11:14:44;25.92;;;20.25;;
12631;SDS011;6381;45.748;12.106;2023-03-05T11:17:24;29.10;;;19.88;;
12631;SDS011;6381;45.748;12.106;2023-03-05T11:19:56;27.08;;;21.27;;
12631;SDS011;6381;45.748;12.106;2023-03-05T11:23:00;26.48;;;20.77;;
12631;SDS011;6381;45.748;12.106;2023-03-05T11:25:32;26.50;;;21.27;;
12631;SDS011;6381;45.748;12.106;2023-03-05T11:28:19;27.65;;;22.90;;
12631;SDS011;6381;45.748;12.106;2023-03-05T11:31:02;25.95;;;21.60;;
12631;SDS011;6381;45.748;12.106;2023-03-05T11:33:35;27.00;;;22.33;;
12631;SDS011;6381;45.748;12.106;2023-03-05T11:36:24;28.95;;;23.48;;
12631;SDS011;6381;45.748;12.106;2023-03-05T11:38:56;28.63;;;23.23;;
12631;SDS011;6381;45.748;12.106;2023-03-05T11:41:33;26.40;;;22.58;;
12631;SDS011;6381;45.748;12.106;2023-03-05T11:44:09;29.15;;;23.98;;
12631;SDS011;6381;45.748;12.106;2023-03-05T11:46:42;29.92;;;24.42;;
12631;SDS011;6381;45.748;12.106;2023-03-05T11:49:32;29.40;;;24.00;;
12631;SDS011;6381;45.748;12.106;2023-03-05T11:52:10;35.05;;;25.50;;
12631;SDS011;6381;45.748;12.106;2023-03-05T11:54:41;29.08;;;24.63;;
12631;SDS011;6381;45.748;12.106;2023-03-05T11:57:20;28.63;;;24.13;;
12631;SDS011;6381;45.748;12.106;2023-03-05T11:59:52;29.23;;;23.20;;
12631;SDS011;6381;45.748;12.106;2023-03-05T12:02:24;30.30;;;24.08;;
12631;SDS011;6381;45.748;12.106;2023-03-05T12:04:54;28.70;;;23.13;;
12631;SDS011;6381;45.748;12.106;2023-03-05T12:07:44;28.73;;;21.95;;
12631;SDS011;6381;45.748;12.106;2023-03-05T12:10:15;29.65;;;23.38;;
12631;SDS011;6381;45.748;12.106;2023-03-05T12:12:50;30.48;;;23.25;;
12631;SDS011;6381;45.748;12.106;2023-03-05T12:18:21;27.95;;;22.50;;
12631;SDS011;6381;45.748;12.106;2023-03-05T12:21:02;25.70;;;22.48;;
12631;SDS011;6381;45.748;12.106;2023-03-05T12:23:52;27.90;;;21.50;;
12631;SDS011;6381;45.748;12.106;2023-03-05T12:29:50;27.40;;;22.05;;
12631;SDS011;6381;45.748;12.106;2023-03-05T12:35:29;26.63;;;23.13;;
12631;SDS011;6381;45.748;12.106;2023-03-05T12:38:17;24.63;;;21.20;;
12631;SDS011;6381;45.748;12.106;2023-03-05T12:44:17;28.98;;;21.83;;
12631;SDS011;6381;45.748;12.106;2023-03-05T12:50:10;22.30;;;19.92;;
12631;SDS011;6381;45.748;12.106;2023-03-05T12:53:12;27.77;;;21.48;;
12631;SDS011;6381;45.748;12.106;2023-03-05T12:55:47;26.40;;;21.83;;
12631;SDS011;6381;45.748;12.106;2023-03-05T12:58:18;25.60;;;21.05;;
12631;SDS011;6381;45.748;12.106;2023-03-05T13:00:51;22.77;;;20.08;;
12631;SDS011;6381;45.748;12.106;2023-03-05T13:03:25;25.30;;;20.48;;
12631;SDS011;6381;45.748;12.106;2023-03-05T13:05:57;24.27;;;20.50;;
12631;SDS011;6381;45.748;12.106;2023-03-05T13:08:27;24.08;;;20.00;;
12631;SDS011;6381;45.748;12.106;2023-03-05T13:10:58;25.23;;;19.42;;
12631;SDS011;6381;45.748;12.106;2023-03-05T13:13:29;25.58;;;20.50;;
12631;SDS011;6381;45.748;12.106;2023-03-05T13:15:59;28.48;;;21.58;;
12631;SDS011;6381;45.748;12.106;2023-03-05T13:21:58;29.30;;;22.85;;
12631;SDS011;6381;45.748;12.106;2023-03-05T13:24:28;26.98;;;21.63;;
12631;SDS011;6381;45.748;12.106;2023-03-05T13:30:04;24.02;;;20.27;;
12631;SDS011;6381;45.748;12.106;2023-03-05T13:32:48;24.73;;;22.02;;
12631;SDS011;6381;45.748;12.106;2023-03-05T13:35:38;24.73;;;20.40;;
12631;SDS011;6381;45.748;12.106;2023-03-05T13:38:21;26.05;;;21.52;;
12631;SDS011;6381;45.748;12.106;2023-03-05T13:41:05;26.23;;;21.77;;
12631;SDS011;6381;45.748;12.106;2023-03-05T13:43:55;24.65;;;21.73;;
12631;SDS011;6381;45.748;12.106;2023-03-05T13:46:25;28.70;;;23.45;;
12631;SDS011;6381;45.748;12.106;2023-03-05T13:48:57;24.65;;;20.65;;
12631;SDS011;6381;45.748;12.106;2023-03-05T13:51:41;25.92;;;20.67;;
12631;SDS011;6381;45.748;12.106;2023-03-05T13:54:12;23.00;;;20.58;;
12631;SDS011;6381;45.748;12.106;2023-03-05T13:56:49;25.75;;;21.35;;
12631;SDS011;6381;45.748;12.106;2023-03-05T13:59:19;24.52;;;20.48;;
12631;SDS011;6381;45.748;12.106;2023-03-05T14:01:49;24.52;;;21.92;;
12631;SDS011;6381;45.748;12.106;2023-03-05T14:04:36;26.17;;;21.90;;
12631;SDS011;6381;45.748;12.106;2023-03-05T14:07:30;29.55;;;24.35;;
12631;SDS011;6381;45.748;12.106;2023-03-05T14:10:00;24.67;;;21.92;;
12631;SDS011;6381;45.748;12.106;2023-03-05T14:12:32;28.33;;;22.48;;
12631;SDS011;6381;45.748;12.106;2023-03-05T14:15:04;24.92;;;20.38;;
12631;SDS011;6381;45.748;12.106;2023-03-05T14:18:24;27.60;;;22.50;;
12631;SDS011;6381;45.748;12.106;2023-03-05T14:21:10;31.25;;;23.02;;
12631;SDS011;6381;45.748;12.106;2023-03-05T14:23:41;26.65;;;22.40;;
12631;SDS011;6381;45.748;12.106;2023-03-05T14:26:17;25.77;;;22.13;;
12631;SDS011;6381;45.748;12.106;2023-03-05T14:28:49;25.95;;;21.48;;
12631;SDS011;6381;45.748;12.106;2023-03-05T14:31:19;23.50;;;20.88;;
12631;SDS011;6381;45.748;12.106;2023-03-05T14:33:50;27.90;;;21.75;;
12631;SDS011;6381;45.748;12.106;2023-03-05T14:36:21;27.77;;;22.92;;
12631;SDS011;6381;45.748;12.106;2023-03-05T14:38:53;25.33;;;22.58;;
12631;SDS011;6381;45.748;12.106;2023-03-05T14:41:33;28.10;;;23.73;;
12631;SDS011;6381;45.748;12.106;2023-03-05T14:44:08;27.98;;;23.27;;
12631;SDS011;6381;45.748;12.106;2023-03-05T14:46:40;32.35;;;23.70;;
12631;SDS011;6381;45.748;12.106;2023-03-05T14:49:27;34.10;;;30.30;;
12631;SDS011;6381;45.748;12.106;2023-03-05T14:52:15;35.65;;;31.08;;
12631;SDS011;6381;45.748;12.106;2023-03-05T14:54:47;36.60;;;30.20;;
12631;SDS011;6381;45.748;12.106;2023-03-05T14:57:17;35.35;;;29.70;;
12631;SDS011;6381;45.748;12.106;2023-03-05T14:59:49;33.55;;;28.63;;
12631;SDS011;6381;45.748;12.106;2023-03-05T15:02:19;33.80;;;28.65;;
12631;SDS011;6381;45.748;12.106;2023-03-05T15:07:37;37.38;;;31.17;;
12631;SDS011;6381;45.748;12.106;2023-03-05T15:10:25;34.65;;;29.27;;
12631;SDS011;6381;45.748;12.106;2023-03-05T15:15:59;36.83;;;29.60;;
12631;SDS011;6381;45.748;12.106;2023-03-05T15:19:03;34.28;;;29.42;;
12631;SDS011;6381;45.748;12.106;2023-03-05T15:21:50;36.17;;;30.55;;
12631;SDS011;6381;45.748;12.106;2023-03-05T15:24:37;36.15;;;31.05;;
12631;SDS011;6381;45.748;12.106;2023-03-05T15:27:08;38.53;;;31.17;;
12631;SDS011;6381;45.748;12.106;2023-03-05T15:29:38;36.85;;;30.48;;
12631;SDS011;6381;45.748;12.106;2023-03-05T15:32:07;35.17;;;29.50;;
12631;SDS011;6381;45.748;12.106;2023-03-05T15:34:53;37.70;;;30.52;;
12631;SDS011;6381;45.748;12.106;2023-03-05T15:37:22;34.70;;;30.08;;
12631;SDS011;6381;45.748;12.106;2023-03-05T15:39:51;37.42;;;30.88;;
12631;SDS011;6381;45.748;12.106;2023-03-05T15:42:22;37.95;;;32.15;;
12631;SDS011;6381;45.748;12.106;2023-03-05T15:44:52;35.88;;;29.42;;
12631;SDS011;6381;45.748;12.106;2023-03-05T15:47:24;36.15;;;31.90;;
12631;SDS011;6381;45.748;12.106;2023-03-05T15:49:54;38.60;;;31.33;;
12631;SDS011;6381;45.748;12.106;2023-03-05T15:52:23;35.78;;;30.40;;
12631;SDS011;6381;45.748;12.106;2023-03-05T15:54:52;37.80;;;32.40;;
12631;SDS011;6381;45.748;12.106;2023-03-05T16:00:28;37.57;;;31.53;;
12631;SDS011;6381;45.748;12.106;2023-03-05T16:05:46;39.97;;;34.70;;
12631;SDS011;6381;45.748;12.106;2023-03-05T16:08:15;43.33;;;35.87;;
12631;SDS011;6381;45.748;12.106;2023-03-05T16:10:44;45.93;;;36.37;;
12631;SDS011;6381;45.748;12.106;2023-03-05T16:13:14;42.63;;;36.97;;
12631;SDS011;6381;45.748;12.106;2023-03-05T16:15:48;48.57;;;36.63;;
12631;SDS011;6381;45.748;12.106;2023-03-05T16:18:20;44.97;;;37.27;;
12631;SDS011;6381;45.748;12.106;2023-03-05T16:21:09;49.23;;;38.47;;
12631;SDS011;6381;45.748;12.106;2023-03-05T16:23:39;45.70;;;38.60;;
12631;SDS011;6381;45.748;12.106;2023-03-05T16:26:09;49.23;;;39.00;;